createdAt,value
2018-09-14T00:00:01.998Z,13.25
2018-09-14T00:01:01.992Z,13.25
2018-09-14T00:02:01.975Z,13.15
2018-09-14T00:03:01.988Z,13.23
2018-09-14T00:04:01.959Z,13.28
2018-09-14T00:05:01.965Z,13.26
2018-09-14T00:06:01.933Z,13.23
2018-09-14T00:07:01.922Z,13.11
2018-09-14T00:08:01.909Z,13.14
2018-09-14T00:09:01.898Z,13.14
2018-09-14T00:10:01.908Z,13.15
2018-09-14T00:11:01.875Z,13.14
2018-09-14T00:12:01.864Z,13.15
2018-09-14T00:13:01.855Z,13.10
2018-09-14T00:14:01.842Z,13.14
2018-09-14T00:15:01.861Z,12.97
2018-09-14T00:16:01.827Z,12.96
2018-09-14T00:17:01.808Z,12.96
2018-09-14T00:18:01.796Z,12.93
2018-09-14T00:19:01.807Z,13.14
2018-09-14T00:20:01.788Z,13.03
2018-09-14T00:21:01.763Z,13.04
2018-09-14T00:22:01.755Z,13.03
2018-09-14T00:23:01.740Z,13.05
2018-09-14T00:24:01.730Z,12.92
2018-09-14T00:25:01.741Z,12.97
2018-09-14T00:26:01.709Z,12.89
2018-09-14T00:27:01.696Z,13.01
2018-09-14T00:28:01.686Z,13.03
2018-09-14T00:29:01.674Z,12.92
2018-09-14T00:30:01.684Z,13.03
2018-09-14T00:31:01.677Z,13.05
2018-09-14T00:32:01.642Z,13.00
2018-09-14T00:33:01.630Z,12.96
2018-09-14T00:34:01.618Z,13.00
2018-09-14T00:35:01.606Z,13.00
2018-09-14T00:36:01.616Z,13.01
2018-09-14T00:37:01.584Z,12.97
2018-09-14T00:38:01.574Z,13.04
2018-09-14T00:39:01.565Z,13.07
2018-09-14T00:40:01.574Z,13.03
2018-09-14T00:41:01.541Z,13.07
2018-09-14T00:42:01.532Z,12.96
2018-09-14T00:43:01.522Z,13.10
2018-09-14T00:44:01.507Z,13.11
2018-09-14T00:45:01.517Z,13.04
2018-09-14T00:46:01.486Z,13.04
2018-09-14T00:47:01.472Z,13.07
2018-09-14T00:48:01.462Z,12.95
2018-09-14T00:49:01.452Z,13.05
2018-09-14T00:50:01.461Z,13.01
2018-09-14T00:51:01.429Z,12.95
2018-09-14T00:52:01.438Z,12.90
2018-09-14T00:53:01.406Z,12.92
2018-09-14T00:54:01.418Z,13.00
2018-09-14T00:55:01.406Z,12.92
2018-09-14T00:56:01.382Z,12.92
2018-09-14T00:57:01.364Z,12.90
2018-09-14T00:58:01.353Z,12.96
2018-09-14T00:59:01.339Z,12.87
2018-09-14T01:00:01.349Z,12.89
2018-09-14T01:01:01.318Z,12.85
2018-09-14T01:02:01.311Z,12.90
2018-09-14T01:03:01.294Z,12.79
2018-09-14T01:04:01.317Z,12.78
2018-09-14T01:05:01.273Z,12.83
2018-09-14T01:06:01.262Z,12.74
2018-09-14T01:07:01.250Z,12.75
2018-09-14T01:08:01.238Z,12.71
2018-09-14T01:09:01.252Z,12.79
2018-09-14T01:10:01.217Z,12.75
2018-09-14T01:11:01.205Z,12.67
2018-09-14T01:12:01.196Z,12.70
2018-09-14T01:13:01.187Z,12.65
2018-09-14T01:14:01.202Z,12.62
2018-09-14T01:15:01.165Z,12.57
2018-09-14T01:16:01.150Z,12.52
2018-09-14T01:17:01.141Z,12.54
2018-09-14T01:18:01.127Z,12.53
2018-09-14T01:19:01.138Z,12.49
2018-09-14T01:20:01.131Z,12.52
2018-09-14T01:21:01.094Z,12.65
2018-09-14T01:22:01.085Z,12.49
2018-09-14T01:23:01.071Z,12.49
2018-09-14T01:24:01.073Z,12.52
2018-09-14T01:25:01.052Z,12.49
2018-09-14T01:26:01.038Z,12.47
2018-09-14T01:27:01.028Z,12.39
2018-09-14T01:28:01.035Z,12.47
2018-09-14T01:29:01.004Z,12.50
2018-09-14T01:30:00.993Z,12.39
2018-09-14T01:31:01.009Z,12.39
2018-09-14T01:32:00.972Z,12.42
2018-09-14T01:33:00.990Z,12.57
2018-09-14T01:34:00.949Z,12.47
2018-09-14T01:35:00.938Z,12.46
2018-09-14T01:36:00.927Z,12.42
2018-09-14T01:37:00.916Z,12.41
2018-09-14T01:38:00.934Z,12.49
2018-09-14T01:39:00.895Z,12.39
2018-09-14T01:40:00.904Z,12.41
2018-09-14T01:41:00.871Z,12.45
2018-09-14T01:42:00.861Z,12.50
2018-09-14T01:43:00.851Z,12.46
2018-09-14T01:44:00.845Z,12.47
2018-09-14T01:45:00.848Z,12.38
2018-09-14T01:46:00.823Z,12.46
2018-09-14T01:47:00.814Z,12.52
2018-09-14T01:48:00.794Z,12.50
2018-09-14T01:49:00.787Z,12.50
2018-09-14T01:50:00.793Z,12.49
2018-09-14T01:51:00.763Z,12.45
2018-09-14T01:52:00.750Z,12.46
2018-09-14T01:53:00.744Z,12.52
2018-09-14T01:54:00.751Z,12.41
2018-09-14T01:55:00.741Z,12.52
2018-09-14T01:56:00.706Z,12.46
2018-09-14T01:57:00.697Z,12.46
2018-09-14T01:58:00.683Z,12.47
2018-09-14T01:59:00.672Z,12.42
2018-09-14T02:00:00.681Z,12.41
2018-09-14T02:01:00.650Z,12.39
2018-09-14T02:02:00.641Z,12.41
2018-09-14T02:03:00.650Z,12.42
2018-09-14T02:04:00.618Z,12.39
2018-09-14T02:05:00.608Z,12.45
2018-09-14T02:06:00.610Z,12.37
2018-09-14T02:07:00.583Z,12.29
2018-09-14T02:08:00.573Z,12.29
2018-09-14T02:09:00.562Z,12.34
2018-09-14T02:10:00.551Z,12.27
2018-09-14T02:11:00.559Z,12.27
2018-09-14T02:12:00.528Z,12.29
2018-09-14T02:13:00.517Z,12.31
2018-09-14T02:14:00.506Z,12.28
2018-09-14T02:15:00.518Z,12.29
2018-09-14T02:16:00.489Z,12.31
2018-09-14T02:17:00.473Z,12.29
2018-09-14T02:18:00.461Z,12.31
2018-09-14T02:19:00.454Z,12.20
2018-09-14T02:20:00.468Z,12.24
2018-09-14T02:21:00.429Z,12.24
2018-09-14T02:22:00.417Z,12.28
2018-09-14T02:23:00.445Z,12.27
2018-09-14T02:24:00.396Z,12.29
2018-09-14T02:25:00.385Z,12.27
2018-09-14T02:26:00.374Z,12.24
2018-09-14T02:27:00.362Z,12.17
2018-09-14T02:28:00.373Z,12.09
2018-09-14T02:29:00.341Z,12.07
2018-09-14T02:30:00.330Z,12.14
2018-09-14T02:31:00.319Z,12.13
2018-09-14T02:32:00.307Z,12.04
2018-09-14T02:33:00.333Z,12.12
2018-09-14T02:34:00.286Z,12.01
2018-09-14T02:35:00.276Z,12.13
2018-09-14T02:36:00.264Z,12.09
2018-09-14T02:37:00.252Z,12.07
2018-09-14T02:38:00.263Z,12.09
2018-09-14T02:39:00.252Z,12.21
2018-09-14T02:40:00.219Z,12.13
2018-09-14T02:41:00.212Z,12.07
2018-09-14T02:42:00.200Z,12.12
2018-09-14T02:43:00.187Z,12.10
2018-09-14T02:44:00.204Z,12.07
2018-09-14T02:45:00.163Z,12.09
2018-09-14T02:46:00.153Z,12.09
2018-09-14T02:47:00.144Z,11.99
2018-09-14T02:48:00.131Z,12.10
2018-09-14T02:49:00.145Z,12.13
2018-09-14T02:50:00.108Z,12.13
2018-09-14T02:51:00.112Z,12.02
2018-09-14T02:52:00.092Z,12.02
2018-09-14T02:53:00.076Z,12.05
2018-09-14T02:54:00.064Z,12.07
2018-09-14T02:55:00.075Z,12.14
2018-09-14T02:56:00.045Z,11.96
2018-09-14T02:57:00.056Z,12.04
2018-09-14T02:58:00.020Z,12.09
2018-09-14T02:59:00.010Z,12.07
2018-09-14T03:00:00.064Z,12.02
2018-09-14T03:00:59.988Z,12.14
2018-09-14T03:01:59.996Z,12.07
2018-09-14T03:02:59.981Z,12.14
2018-09-14T03:03:59.956Z,12.10
2018-09-14T03:04:59.943Z,12.09
2018-09-14T03:05:59.938Z,12.09
2018-09-14T03:06:59.920Z,12.12
2018-09-14T03:07:59.934Z,12.13
2018-09-14T03:08:59.899Z,12.14
2018-09-14T03:09:59.909Z,12.10
2018-09-14T03:10:59.876Z,12.05
2018-09-14T03:11:59.866Z,12.14
2018-09-14T03:12:59.868Z,12.09
2018-09-14T03:13:59.844Z,12.04
2018-09-14T03:14:59.833Z,12.16
2018-09-14T03:15:59.843Z,12.09
2018-09-14T03:16:59.809Z,12.12
2018-09-14T03:17:59.829Z,12.13
2018-09-14T03:18:59.791Z,12.13
2018-09-14T03:19:59.781Z,12.16
2018-09-14T03:20:59.770Z,12.23
2018-09-14T03:21:59.753Z,12.17
2018-09-14T03:22:59.764Z,12.16
2018-09-14T03:23:59.732Z,12.13
2018-09-14T03:24:59.741Z,12.14
2018-09-14T03:25:59.710Z,12.17
2018-09-14T03:26:59.702Z,12.16
2018-09-14T03:27:59.688Z,12.29
2018-09-14T03:28:59.681Z,12.10
2018-09-14T03:29:59.687Z,12.10
2018-09-14T03:30:59.801Z,12.17
2018-09-14T03:31:59.643Z,12.16
2018-09-14T03:32:59.632Z,12.09
2018-09-14T03:33:59.622Z,12.13
2018-09-14T03:34:59.623Z,12.16
2018-09-14T03:35:59.599Z,12.10
2018-09-14T03:36:59.620Z,12.07
2018-09-14T03:37:59.577Z,12.07
2018-09-14T03:38:59.576Z,12.13
2018-09-14T03:39:59.557Z,12.12
2018-09-14T03:40:59.544Z,12.07
2018-09-14T03:41:59.564Z,12.05
2018-09-14T03:42:59.523Z,12.13
2018-09-14T03:43:59.513Z,12.10
2018-09-14T03:44:59.500Z,12.07
2018-09-14T03:45:59.488Z,12.17
2018-09-14T03:46:59.499Z,12.19
2018-09-14T03:47:59.467Z,12.13
2018-09-14T03:48:59.456Z,12.02
2018-09-14T03:49:59.445Z,12.13
2018-09-14T03:50:59.457Z,12.09
2018-09-14T03:51:59.422Z,12.10
2018-09-14T03:52:59.428Z,12.12
2018-09-14T03:53:59.403Z,12.09
2018-09-14T03:54:59.410Z,12.09
2018-09-14T03:55:59.381Z,12.10
2018-09-14T03:56:59.371Z,12.10
2018-09-14T03:57:59.356Z,12.04
2018-09-14T03:58:59.346Z,12.10
2018-09-14T03:59:59.355Z,12.07
2018-09-14T04:00:59.322Z,12.12
2018-09-14T04:01:59.312Z,12.12
2018-09-14T04:02:59.323Z,12.13
2018-09-14T04:03:59.292Z,12.10
2018-09-14T04:04:59.280Z,12.09
2018-09-14T04:05:59.267Z,11.98
2018-09-14T04:06:59.258Z,12.02
2018-09-14T04:07:59.288Z,12.05
2018-09-14T04:08:59.236Z,12.01
2018-09-14T04:09:59.229Z,12.05
2018-09-14T04:10:59.213Z,11.98
2018-09-14T04:11:59.202Z,12.14
2018-09-14T04:12:59.230Z,12.09
2018-09-14T04:13:59.179Z,12.12
2018-09-14T04:14:59.169Z,12.05
2018-09-14T04:15:59.157Z,12.07
2018-09-14T04:16:59.145Z,12.09
2018-09-14T04:17:59.165Z,12.13
2018-09-14T04:18:59.126Z,12.09
2018-09-14T04:19:59.113Z,12.09
2018-09-14T04:20:59.102Z,12.10
2018-09-14T04:21:59.090Z,12.05
2018-09-14T04:22:59.102Z,12.05
2018-09-14T04:23:59.068Z,12.09
2018-09-14T04:24:59.057Z,12.13
2018-09-14T04:25:59.048Z,12.13
2018-09-14T04:26:59.088Z,12.09
2018-09-14T04:27:59.024Z,12.09
2018-09-14T04:28:59.016Z,12.16
2018-09-14T04:29:59.001Z,12.16
2018-09-14T04:30:58.990Z,12.17
2018-09-14T04:31:59.015Z,12.17
2018-09-14T04:32:58.972Z,12.13
2018-09-14T04:33:58.958Z,12.17
2018-09-14T04:34:58.946Z,12.17
2018-09-14T04:35:58.935Z,12.19
2018-09-14T04:36:58.944Z,12.14
2018-09-14T04:37:58.992Z,12.19
2018-09-14T04:38:58.903Z,12.13
2018-09-14T04:39:58.890Z,12.14
2018-09-14T04:40:58.880Z,12.23
2018-09-14T04:41:58.893Z,12.23
2018-09-14T04:42:58.861Z,12.27
2018-09-14T04:43:58.847Z,12.19
2018-09-14T04:44:58.835Z,12.24
2018-09-14T04:45:58.845Z,12.27
2018-09-14T04:46:58.812Z,12.31
2018-09-14T04:47:58.801Z,12.21
2018-09-14T04:48:58.804Z,12.28
2018-09-14T04:49:58.779Z,12.27
2018-09-14T04:50:58.768Z,12.21
2018-09-14T04:51:58.756Z,12.27
2018-09-14T04:52:58.748Z,12.24
2018-09-14T04:53:58.756Z,12.24
2018-09-14T04:54:58.726Z,12.19
2018-09-14T04:55:58.713Z,12.16
2018-09-14T04:56:58.702Z,12.10
2018-09-14T04:57:58.691Z,12.21
2018-09-14T04:58:58.692Z,12.12
2018-09-14T04:59:58.669Z,12.16
2018-09-14T05:00:58.658Z,12.17
2018-09-14T05:01:58.646Z,12.20
2018-09-14T05:02:58.666Z,12.12
2018-09-14T05:03:58.653Z,12.28
2018-09-14T05:04:58.646Z,12.21
2018-09-14T05:05:58.602Z,12.32
2018-09-14T05:06:58.676Z,12.29
2018-09-14T05:07:58.578Z,12.21
2018-09-14T05:08:58.569Z,12.28
2018-09-14T05:09:58.578Z,12.24
2018-09-14T05:10:58.548Z,12.27
2018-09-14T05:11:58.535Z,12.29
2018-09-14T05:12:58.526Z,12.24
2018-09-14T05:13:58.568Z,12.27
2018-09-14T05:14:58.502Z,12.21
2018-09-14T05:15:58.492Z,12.24
2018-09-14T05:16:58.479Z,12.28
2018-09-14T05:17:58.471Z,12.23
2018-09-14T05:18:58.479Z,12.31
2018-09-14T05:19:58.471Z,12.23
2018-09-14T05:20:58.434Z,12.21
2018-09-14T05:21:58.424Z,12.14
2018-09-14T05:22:58.413Z,12.20
2018-09-14T05:23:58.439Z,12.20
2018-09-14T05:24:58.446Z,12.27
2018-09-14T05:25:58.382Z,12.16
2018-09-14T05:26:58.372Z,12.12
2018-09-14T05:27:58.358Z,12.16
2018-09-14T05:28:58.349Z,12.13
2018-09-14T05:29:58.366Z,12.10
2018-09-14T05:30:58.326Z,12.20
2018-09-14T05:31:58.313Z,12.24
2018-09-14T05:32:58.301Z,12.19
2018-09-14T05:33:58.291Z,12.27
2018-09-14T05:34:58.303Z,12.20
2018-09-14T05:35:58.282Z,12.28
2018-09-14T05:36:58.258Z,12.21
2018-09-14T05:37:58.246Z,12.28
2018-09-14T05:38:58.235Z,12.28
2018-09-14T05:39:58.226Z,12.28
2018-09-14T05:40:58.227Z,12.20
2018-09-14T05:41:58.203Z,12.24
2018-09-14T05:42:58.191Z,12.23
2018-09-14T05:43:58.181Z,12.24
2018-09-14T05:44:58.169Z,12.35
2018-09-14T05:45:58.179Z,12.31
2018-09-14T05:46:58.151Z,12.29
2018-09-14T05:47:58.136Z,12.31
2018-09-14T05:48:58.125Z,12.32
2018-09-14T05:49:58.136Z,12.34
2018-09-14T05:50:58.131Z,12.37
2018-09-14T05:51:58.091Z,12.39
2018-09-14T05:52:58.080Z,12.42
2018-09-14T05:53:58.090Z,12.45
2018-09-14T05:54:58.092Z,12.47
2018-09-14T05:55:58.046Z,12.53
2018-09-14T05:56:58.036Z,12.60
2018-09-14T05:57:58.032Z,12.64
2018-09-14T05:58:58.012Z,12.70
2018-09-14T05:59:58.123Z,12.78
2018-09-14T06:00:57.991Z,12.79
2018-09-14T06:01:57.981Z,12.77
2018-09-14T06:02:57.973Z,12.85
2018-09-14T06:03:57.958Z,12.79
2018-09-14T06:04:57.988Z,12.82
2018-09-14T06:05:57.934Z,12.86
2018-09-14T06:06:57.924Z,13.00
2018-09-14T06:07:57.913Z,12.90
2018-09-14T06:08:57.901Z,12.90
2018-09-14T06:09:57.917Z,12.95
2018-09-14T06:10:57.881Z,12.97
2018-09-14T06:11:57.893Z,13.14
2018-09-14T06:12:57.857Z,13.14
2018-09-14T06:13:57.858Z,13.04
2018-09-14T06:14:57.840Z,13.12
2018-09-14T06:15:57.843Z,13.12
2018-09-14T06:16:57.874Z,13.14
2018-09-14T06:17:57.801Z,13.12
2018-09-14T06:18:57.790Z,13.14
2018-09-14T06:19:57.781Z,13.11
2018-09-14T06:20:57.769Z,13.15
2018-09-14T06:21:57.780Z,13.19
2018-09-14T06:22:57.775Z,13.26
2018-09-14T06:23:57.733Z,13.26
2018-09-14T06:24:57.753Z,13.33
2018-09-14T06:25:57.717Z,13.38
2018-09-14T06:26:57.705Z,13.41
2018-09-14T06:27:57.689Z,13.45
2018-09-14T06:28:57.679Z,13.45
2018-09-14T06:29:57.692Z,13.45
2018-09-14T06:30:57.680Z,13.49
2018-09-14T06:31:57.645Z,13.48
2018-09-14T06:32:57.633Z,13.55
2018-09-14T06:33:57.623Z,13.55
2018-09-14T06:34:57.623Z,13.59
2018-09-14T06:35:57.623Z,13.54
2018-09-14T06:36:57.627Z,13.51
2018-09-14T06:37:57.583Z,13.57
2018-09-14T06:38:57.568Z,13.64
2018-09-14T06:39:57.555Z,13.66
2018-09-14T06:40:57.545Z,13.64
2018-09-14T06:41:57.566Z,13.66
2018-09-14T06:42:57.522Z,13.64
2018-09-14T06:43:57.516Z,13.60
2018-09-14T06:44:57.586Z,13.77
2018-09-14T06:45:57.489Z,13.71
2018-09-14T06:46:57.500Z,13.63
2018-09-14T06:47:57.467Z,13.77
2018-09-14T06:48:57.459Z,13.64
2018-09-14T06:49:57.445Z,13.66
2018-09-14T06:50:57.435Z,13.67
2018-09-14T06:51:57.448Z,13.77
2018-09-14T06:52:57.461Z,13.71
2018-09-14T06:53:57.401Z,13.70
2018-09-14T06:54:57.397Z,13.78
2018-09-14T06:55:57.376Z,13.73
2018-09-14T06:56:57.365Z,13.71
2018-09-14T06:57:57.384Z,13.69
2018-09-14T06:58:57.344Z,13.71
2018-09-14T06:59:57.370Z,13.66
2018-09-14T07:00:57.325Z,13.79
2018-09-14T07:01:57.311Z,13.73
2018-09-14T07:02:57.321Z,13.73
2018-09-14T07:03:57.310Z,13.81
2018-09-14T07:04:57.276Z,13.81
2018-09-14T07:05:57.265Z,13.81
2018-09-14T07:06:57.257Z,13.85
2018-09-14T07:07:57.243Z,13.87
2018-09-14T07:08:57.266Z,13.87
2018-09-14T07:09:57.220Z,13.88
2018-09-14T07:10:57.212Z,13.85
2018-09-14T07:11:57.202Z,13.88
2018-09-14T07:12:57.190Z,13.81
2018-09-14T07:13:57.263Z,13.82
2018-09-14T07:14:57.166Z,13.85
2018-09-14T07:15:57.154Z,13.82
2018-09-14T07:16:57.144Z,13.85
2018-09-14T07:17:57.136Z,13.91
2018-09-14T07:18:57.144Z,13.96
2018-09-14T07:19:57.109Z,13.95
2018-09-14T07:20:57.102Z,13.99
2018-09-14T07:21:57.147Z,14.04
2018-09-14T07:22:57.077Z,14.03
2018-09-14T07:23:57.086Z,14.07
2018-09-14T07:24:57.169Z,14.09
2018-09-14T07:25:57.065Z,14.09
2018-09-14T07:26:57.032Z,14.12
2018-09-14T07:27:57.038Z,14.20
2018-09-14T07:28:57.080Z,14.20
2018-09-14T07:29:57.043Z,14.17
2018-09-14T07:30:57.030Z,14.27
2018-09-14T07:31:57.113Z,14.28
2018-09-14T07:32:57.005Z,14.28
2018-09-14T07:33:56.954Z,14.39
2018-09-14T07:34:56.944Z,14.39
2018-09-14T07:35:56.956Z,14.42
2018-09-14T07:36:56.922Z,14.42
2018-09-14T07:37:56.910Z,14.43
2018-09-14T07:38:56.927Z,14.47
2018-09-14T07:39:56.889Z,14.51
2018-09-14T07:40:56.882Z,14.51
2018-09-14T07:41:56.866Z,14.60
2018-09-14T07:42:56.857Z,14.58
2018-09-14T07:43:56.861Z,14.54
2018-09-14T07:44:56.853Z,14.50
2018-09-14T07:45:56.821Z,14.61
2018-09-14T07:46:56.815Z,14.50
2018-09-14T07:47:56.799Z,14.46
2018-09-14T07:48:56.813Z,14.65
2018-09-14T07:49:56.780Z,14.61
2018-09-14T07:50:56.788Z,14.75
2018-09-14T07:51:56.755Z,14.77
2018-09-14T07:52:56.745Z,14.80
2018-09-14T07:53:56.736Z,14.81
2018-09-14T07:54:56.743Z,14.57
2018-09-14T07:55:56.715Z,14.51
2018-09-14T07:56:56.700Z,14.51
2018-09-14T07:57:56.689Z,14.57
2018-09-14T07:58:56.699Z,14.60
2018-09-14T07:59:56.698Z,14.64
2018-09-14T08:00:56.657Z,14.55
2018-09-14T08:01:56.644Z,14.60
2018-09-14T08:02:56.645Z,14.61
2018-09-14T08:03:56.623Z,14.68
2018-09-14T08:04:56.634Z,14.80
2018-09-14T08:05:56.604Z,14.88
2018-09-14T08:06:56.611Z,14.94
2018-09-14T08:07:56.578Z,14.89
2018-09-14T08:08:56.567Z,14.98
2018-09-14T08:09:56.558Z,15.06
2018-09-14T08:10:56.566Z,15.14
2018-09-14T08:11:56.565Z,15.23
2018-09-14T08:12:56.523Z,15.14
2018-09-14T08:13:56.511Z,15.23
2018-09-14T08:14:56.502Z,15.21
2018-09-14T08:15:56.516Z,15.10
2018-09-14T08:16:56.480Z,14.96
2018-09-14T08:17:56.470Z,15.17
2018-09-14T08:18:56.472Z,15.21
2018-09-14T08:19:56.467Z,15.31
2018-09-14T08:20:56.457Z,15.41
2018-09-14T08:21:56.479Z,15.56
2018-09-14T08:22:56.414Z,15.67
2018-09-14T08:23:56.425Z,15.86
2018-09-14T08:24:56.394Z,15.96
2018-09-14T08:25:56.382Z,16.02
2018-09-14T08:26:56.443Z,16.02
2018-09-14T08:27:56.357Z,15.90
2018-09-14T08:28:56.369Z,15.75
2018-09-14T08:29:56.337Z,15.72
2018-09-14T08:30:56.327Z,15.57
2018-09-14T08:31:56.315Z,15.59
2018-09-14T08:32:56.303Z,15.62
2018-09-14T08:33:56.312Z,15.68
2018-09-14T08:34:56.282Z,15.72
2018-09-14T08:35:56.268Z,15.80
2018-09-14T08:36:56.267Z,15.86
2018-09-14T08:37:56.245Z,15.97
2018-09-14T08:38:56.248Z,15.96
2018-09-14T08:39:56.230Z,15.96
2018-09-14T08:40:56.213Z,16.02
2018-09-14T08:41:56.201Z,16.04
2018-09-14T08:42:56.191Z,15.96
2018-09-14T08:43:56.206Z,15.80
2018-09-14T08:44:56.196Z,15.69
2018-09-14T08:45:56.160Z,15.72
2018-09-14T08:46:56.146Z,15.67
2018-09-14T08:47:56.179Z,15.75
2018-09-14T08:48:56.125Z,15.90
2018-09-14T08:49:56.143Z,15.97
2018-09-14T08:50:56.102Z,15.97
2018-09-14T08:51:56.095Z,16.02
2018-09-14T08:52:56.080Z,16.07
2018-09-14T08:53:56.070Z,16.20
2018-09-14T08:54:56.081Z,16.17
2018-09-14T08:55:56.057Z,16.09
2018-09-14T08:56:56.058Z,15.94
2018-09-14T08:57:56.077Z,15.84
2018-09-14T08:58:56.011Z,15.75
2018-09-14T08:59:56.001Z,15.67
2018-09-14T09:00:56.036Z,15.60
2018-09-14T09:01:56.002Z,15.64
2018-09-14T09:02:55.968Z,15.53
2018-09-14T09:03:56.016Z,15.62
2018-09-14T09:04:55.945Z,15.65
2018-09-14T09:05:55.934Z,15.83
2018-09-14T09:06:55.947Z,16.09
2018-09-14T09:07:55.913Z,16.20
2018-09-14T09:08:55.901Z,16.20
2018-09-14T09:09:55.892Z,16.30
2018-09-14T09:10:55.881Z,16.35
2018-09-14T09:11:55.884Z,16.56
2018-09-14T09:12:55.859Z,16.70
2018-09-14T09:13:55.867Z,17.11
2018-09-14T09:14:55.838Z,17.41
2018-09-14T09:15:55.838Z,17.43
2018-09-14T09:16:55.837Z,17.03
2018-09-14T09:17:55.801Z,16.83
2018-09-14T09:18:55.790Z,17.30
2018-09-14T09:19:55.826Z,17.74
2018-09-14T09:20:55.786Z,17.99
2018-09-14T09:21:55.761Z,18.21
2018-09-14T09:22:55.745Z,18.48
2018-09-14T09:23:55.734Z,18.73
2018-09-14T09:24:55.764Z,18.88
2018-09-14T09:25:55.712Z,18.76
2018-09-14T09:26:55.701Z,18.81
2018-09-14T09:27:55.693Z,18.94
2018-09-14T09:28:55.679Z,18.95
2018-09-14T09:29:55.700Z,18.91
2018-09-14T09:30:55.658Z,19.13
2018-09-14T09:31:55.647Z,19.16
2018-09-14T09:32:55.647Z,19.36
2018-09-14T09:33:55.624Z,19.29
2018-09-14T09:34:55.656Z,19.51
2018-09-14T09:35:55.602Z,19.28
2018-09-14T09:36:55.591Z,18.91
2018-09-14T09:37:55.592Z,18.91
2018-09-14T09:38:55.569Z,18.98
2018-09-14T09:39:55.559Z,18.91
2018-09-14T09:40:55.547Z,18.80
2018-09-14T09:41:55.536Z,18.80
2018-09-14T09:42:55.539Z,18.87
2018-09-14T09:43:55.613Z,18.81
2018-09-14T09:44:55.561Z,19.00
2018-09-14T09:45:55.490Z,19.29
2018-09-14T09:46:55.482Z,19.51
2018-09-14T09:47:55.560Z,19.94
2018-09-14T09:48:55.461Z,19.99
2018-09-14T09:49:55.468Z,19.98
2018-09-14T09:50:55.564Z,19.66
2018-09-14T09:51:55.425Z,19.71
2018-09-14T09:52:55.413Z,19.84
2018-09-14T09:53:55.405Z,19.71
2018-09-14T09:54:55.439Z,19.22
2018-09-14T09:55:55.404Z,18.95
2018-09-14T09:56:55.369Z,18.60
2018-09-14T09:57:55.357Z,18.27
2018-09-14T09:58:55.347Z,18.27
2018-09-14T09:59:55.367Z,18.26
2018-09-14T10:00:55.324Z,18.21
2018-09-14T10:01:55.315Z,18.33
2018-09-14T10:02:55.305Z,18.26
2018-09-14T10:03:55.332Z,18.10
2018-09-14T10:04:55.304Z,18.23
2018-09-14T10:05:55.278Z,18.17
2018-09-14T10:06:55.257Z,18.45
2018-09-14T10:07:55.262Z,18.78
2018-09-14T10:08:55.266Z,19.06
2018-09-14T10:09:55.227Z,19.29
2018-09-14T10:10:55.215Z,19.48
2018-09-14T10:11:55.230Z,19.91
2018-09-14T10:12:55.193Z,20.11
2018-09-14T10:13:55.180Z,20.11
2018-09-14T10:14:55.186Z,20.16
2018-09-14T10:15:55.161Z,20.29
2018-09-14T10:16:55.177Z,20.35
2018-09-14T10:17:55.140Z,20.38
2018-09-14T10:18:55.126Z,20.58
2018-09-14T10:19:55.115Z,20.67
2018-09-14T10:20:55.170Z,20.77
2018-09-14T10:21:55.121Z,20.85
2018-09-14T10:22:55.084Z,20.91
2018-09-14T10:23:55.096Z,20.73
2018-09-14T10:24:55.061Z,20.43
2018-09-14T10:25:55.052Z,20.28
2018-09-14T10:26:55.039Z,20.31
2018-09-14T10:27:55.030Z,20.31
2018-09-14T10:28:55.084Z,20.36
2018-09-14T10:29:55.008Z,19.96
2018-09-14T10:30:55.020Z,19.73
2018-09-14T10:31:54.987Z,19.73
2018-09-14T10:32:54.976Z,19.62
2018-09-14T10:33:55.024Z,19.62
2018-09-14T10:34:54.986Z,19.47
2018-09-14T10:35:54.972Z,19.32
2018-09-14T10:36:54.936Z,19.47
2018-09-14T10:37:54.959Z,19.63
2018-09-14T10:38:54.910Z,19.91
2018-09-14T10:39:54.899Z,20.16
2018-09-14T10:40:54.997Z,20.26
2018-09-14T10:41:54.908Z,20.50
2018-09-14T10:42:54.942Z,20.69
2018-09-14T10:43:54.856Z,20.85
2018-09-14T10:44:54.845Z,20.84
2018-09-14T10:45:54.835Z,20.94
2018-09-14T10:46:54.850Z,21.09
2018-09-14T10:47:54.814Z,21.17
2018-09-14T10:48:54.934Z,21.22
2018-09-14T10:49:54.815Z,21.19
2018-09-14T10:50:54.780Z,21.17
2018-09-14T10:51:54.790Z,21.09
2018-09-14T10:52:54.758Z,21.12
2018-09-14T10:53:54.746Z,21.10
2018-09-14T10:54:54.904Z,21.16
2018-09-14T10:55:54.728Z,21.12
2018-09-14T10:56:54.740Z,21.14
2018-09-14T10:57:54.701Z,21.16
2018-09-14T10:58:54.692Z,21.09
2018-09-14T10:59:54.679Z,20.99
2018-09-14T11:00:54.777Z,21.06
2018-09-14T11:01:54.669Z,21.13
2018-09-14T11:02:54.644Z,21.22
2018-09-14T11:03:54.636Z,21.34
2018-09-14T11:04:54.626Z,21.52
2018-09-14T11:05:54.611Z,21.47
2018-09-14T11:06:54.632Z,21.46
2018-09-14T11:07:54.589Z,21.24
2018-09-14T11:08:54.597Z,21.12
2018-09-14T11:09:54.577Z,21.17
2018-09-14T11:10:54.555Z,21.07
2018-09-14T11:11:54.542Z,20.95
2018-09-14T11:12:54.577Z,20.67
2018-09-14T11:13:54.556Z,20.59
2018-09-14T11:14:54.511Z,20.51
2018-09-14T11:15:54.499Z,20.39
2018-09-14T11:16:54.487Z,20.36
2018-09-14T11:17:54.476Z,20.36
2018-09-14T11:18:54.533Z,20.35
2018-09-14T11:19:54.453Z,20.38
2018-09-14T11:20:54.447Z,20.54
2018-09-14T11:21:54.431Z,20.70
2018-09-14T11:22:54.421Z,21.09
2018-09-14T11:23:54.436Z,21.17
2018-09-14T11:24:54.484Z,21.25
2018-09-14T11:25:54.386Z,21.37
2018-09-14T11:26:54.377Z,21.44
2018-09-14T11:27:54.368Z,21.40
2018-09-14T11:28:54.382Z,21.54
2018-09-14T11:29:54.343Z,21.65
2018-09-14T11:30:54.330Z,21.21
2018-09-14T11:31:54.318Z,20.79
2018-09-14T11:32:54.314Z,20.69
2018-09-14T11:33:54.318Z,20.62
2018-09-14T11:34:54.286Z,20.55
2018-09-14T11:35:54.276Z,20.43
2018-09-14T11:36:54.264Z,20.29
2018-09-14T11:37:54.305Z,20.20
2018-09-14T11:38:54.241Z,20.29
2018-09-14T11:39:54.260Z,20.24
2018-09-14T11:40:54.219Z,20.33
2018-09-14T11:41:54.207Z,20.28
2018-09-14T11:42:54.197Z,20.16
2018-09-14T11:43:54.185Z,20.16
2018-09-14T11:44:54.204Z,20.08
2018-09-14T11:45:54.169Z,20.17
2018-09-14T11:46:54.155Z,20.21
2018-09-14T11:47:54.146Z,20.24
2018-09-14T11:48:54.135Z,20.05
2018-09-14T11:49:54.144Z,20.24
2018-09-14T11:50:54.114Z,20.38
2018-09-14T11:51:54.103Z,20.32
2018-09-14T11:52:54.111Z,20.54
2018-09-14T11:53:54.084Z,20.51
2018-09-14T11:54:54.069Z,20.59
2018-09-14T11:55:54.059Z,20.80
2018-09-14T11:56:54.048Z,20.92
2018-09-14T11:57:54.060Z,21.03
2018-09-14T11:58:54.029Z,21.12
2018-09-14T11:59:54.016Z,21.09
2018-09-14T12:00:54.006Z,20.85
2018-09-14T12:01:54.010Z,20.97
2018-09-14T12:02:54.006Z,20.95
2018-09-14T12:03:53.974Z,20.67
2018-09-14T12:04:53.966Z,20.38
2018-09-14T12:05:53.952Z,20.11
2018-09-14T12:06:53.962Z,20.18
2018-09-14T12:07:53.933Z,20.31
2018-09-14T12:08:53.922Z,20.61
2018-09-14T12:09:53.933Z,20.52
2018-09-14T12:10:53.901Z,20.39
2018-09-14T12:11:53.888Z,20.47
2018-09-14T12:12:53.877Z,20.67
2018-09-14T12:13:53.976Z,20.92
2018-09-14T12:14:53.906Z,21.10
2018-09-14T12:15:53.877Z,21.17
2018-09-14T12:16:53.836Z,21.24
2018-09-14T12:17:53.824Z,20.98
2018-09-14T12:18:53.821Z,21.04
2018-09-14T12:19:53.808Z,21.14
2018-09-14T12:20:53.824Z,21.04
2018-09-14T12:21:53.781Z,21.12
2018-09-14T12:22:53.770Z,21.27
2018-09-14T12:23:53.761Z,21.32
2018-09-14T12:24:53.749Z,21.24
2018-09-14T12:25:53.751Z,21.16
2018-09-14T12:26:53.757Z,21.03
2018-09-14T12:27:53.717Z,21.16
2018-09-14T12:28:53.704Z,21.13
2018-09-14T12:29:53.693Z,21.03
2018-09-14T12:30:53.685Z,20.95
2018-09-14T12:31:53.703Z,20.87
2018-09-14T12:32:53.662Z,21.04
2018-09-14T12:33:53.651Z,21.21
2018-09-14T12:34:53.639Z,21.10
2018-09-14T12:35:53.629Z,20.89
2018-09-14T12:36:53.636Z,20.73
2018-09-14T12:37:53.608Z,20.59
2018-09-14T12:38:53.597Z,20.87
2018-09-14T12:39:53.605Z,20.87
2018-09-14T12:40:53.575Z,20.91
2018-09-14T12:41:53.565Z,20.70
2018-09-14T12:42:53.555Z,20.62
2018-09-14T12:43:53.544Z,20.31
2018-09-14T12:44:53.568Z,20.03
2018-09-14T12:45:53.523Z,19.87
2018-09-14T12:46:53.512Z,19.68
2018-09-14T12:47:53.532Z,19.47
2018-09-14T12:48:53.494Z,19.56
2018-09-14T12:49:53.480Z,19.55
2018-09-14T12:50:53.468Z,19.66
2018-09-14T12:51:53.463Z,19.83